sensor_id;sensor_type;location;lat;lon;timestamp;pressure;altitude;pressure_sealevel;temperature
76394;BMP180;65216;51.090;-115.352;2023-08-01T00:00:19;86962.20;;;23.60
76394;BMP180;65216;51.090;-115.352;2023-08-01T00:02:47;86967.00;;;23.60
76394;BMP180;65216;51.090;-115.352;2023-08-01T00:05:16;86978.40;;;23.60
76394;BMP180;65216;51.090;-115.352;2023-08-01T00:07:45;86973.20;;;23.60
76394;BMP180;65216;51.090;-115.352;2023-08-01T00:10:11;86983.20;;;23.60
76394;BMP180;65216;51.090;-115.352;2023-08-01T00:12:38;86957.20;;;23.60
76394;BMP180;65216;51.090;-115.352;2023-08-01T00:15:06;86962.60;;;23.60
76394;BMP180;65216;51.090;-115.352;2023-08-01T00:17:33;86980.00;;;23.60
76394;BMP180;65216;51.090;-115.352;2023-08-01T00:20:02;86965.20;;;23.60
76394;BMP180;65216;51.090;-115.352;2023-08-01T00:22:35;86959.40;;;23.60
76394;BMP180;65216;51.090;-115.352;2023-08-01T00:25:02;86956.40;;;23.60
76394;BMP180;65216;51.090;-115.352;2023-08-01T00:27:29;86971.20;;;23.60
76394;BMP180;65216;51.090;-115.352;2023-08-01T00:30:05;86972.80;;;23.60
76394;BMP180;65216;51.090;-115.352;2023-08-01T00:32:36;86959.00;;;23.60
76394;BMP180;65216;51.090;-115.352;2023-08-01T00:35:04;86963.80;;;23.68
76394;BMP180;65216;51.090;-115.352;2023-08-01T00:37:31;86962.00;;;23.70
76394;BMP180;65216;51.090;-115.352;2023-08-01T00:39:58;86963.40;;;23.70
76394;BMP180;65216;51.090;-115.352;2023-08-01T00:42:28;86964.60;;;23.70
76394;BMP180;65216;51.090;-115.352;2023-08-01T00:44:56;86961.40;;;23.70
76394;BMP180;65216;51.090;-115.352;2023-08-01T00:47:23;86956.20;;;23.70
76394;BMP180;65216;51.090;-115.352;2023-08-01T00:49:51;86959.00;;;23.70
76394;BMP180;65216;51.090;-115.352;2023-08-01T00:52:18;86964.20;;;23.70
76394;BMP180;65216;51.090;-115.352;2023-08-01T00:54:45;86977.00;;;23.66
76394;BMP180;65216;51.090;-115.352;2023-08-01T00:57:12;86979.00;;;23.64
76394;BMP180;65216;51.090;-115.352;2023-08-01T00:59:42;86979.00;;;23.70
76394;BMP180;65216;51.090;-115.352;2023-08-01T01:02:13;86973.60;;;23.70
76394;BMP180;65216;51.090;-115.352;2023-08-01T01:04:40;86966.60;;;23.70
76394;BMP180;65216;51.090;-115.352;2023-08-01T01:07:08;86960.00;;;23.70
76394;BMP180;65216;51.090;-115.352;2023-08-01T01:09:35;86971.80;;;23.70
76394;BMP180;65216;51.090;-115.352;2023-08-01T01:12:03;86968.00;;;23.70
76394;BMP180;65216;51.090;-115.352;2023-08-01T01:14:36;86981.00;;;23.70
76394;BMP180;65216;51.090;-115.352;2023-08-01T01:17:04;86966.60;;;23.70
76394;BMP180;65216;51.090;-115.352;2023-08-01T01:19:31;86966.00;;;23.70
76394;BMP180;65216;51.090;-115.352;2023-08-01T01:21:58;86980.40;;;23.70
76394;BMP180;65216;51.090;-115.352;2023-08-01T01:24:30;86984.00;;;23.70
76394;BMP180;65216;51.090;-115.352;2023-08-01T01:26:58;86976.60;;;23.70
76394;BMP180;65216;51.090;-115.352;2023-08-01T01:29:27;86981.00;;;23.70
76394;BMP180;65216;51.090;-115.352;2023-08-01T01:31:57;86974.60;;;23.68
76394;BMP180;65216;51.090;-115.352;2023-08-01T01:34:25;86983.40;;;23.70
76394;BMP180;65216;51.090;-115.352;2023-08-01T01:36:52;86980.60;;;23.66
76394;BMP180;65216;51.090;-115.352;2023-08-01T01:39:19;86983.40;;;23.60
76394;BMP180;65216;51.090;-115.352;2023-08-01T01:41:47;86981.00;;;23.64
76394;BMP180;65216;51.090;-115.352;2023-08-01T01:44:17;86980.60;;;23.66
76394;BMP180;65216;51.090;-115.352;2023-08-01T01:46:44;86995.80;;;23.62
76394;BMP180;65216;51.090;-115.352;2023-08-01T01:49:15;86983.00;;;23.60
76394;BMP180;65216;51.090;-115.352;2023-08-01T01:51:42;86986.40;;;23.60
76394;BMP180;65216;51.090;-115.352;2023-08-01T01:54:10;86994.00;;;23.60
76394;BMP180;65216;51.090;-115.352;2023-08-01T01:56:37;86984.60;;;23.60
76394;BMP180;65216;51.090;-115.352;2023-08-01T01:59:04;86993.60;;;23.60
76394;BMP180;65216;51.090;-115.352;2023-08-01T02:01:30;87016.60;;;23.60
76394;BMP180;65216;51.090;-115.352;2023-08-01T02:03:57;86994.00;;;23.60
76394;BMP180;65216;51.090;-115.352;2023-08-01T02:06:24;87001.00;;;23.60
76394;BMP180;65216;51.090;-115.352;2023-08-01T02:08:51;87004.40;;;23.60
76394;BMP180;65216;51.090;-115.352;2023-08-01T02:11:18;87011.40;;;23.60
76394;BMP180;65216;51.090;-115.352;2023-08-01T02:13:47;87013.20;;;23.60
76394;BMP180;65216;51.090;-115.352;2023-08-01T02:16:17;87020.60;;;23.52
76394;BMP180;65216;51.090;-115.352;2023-08-01T02:18:46;87021.00;;;23.50
76394;BMP180;65216;51.090;-115.352;2023-08-01T02:21:13;87016.40;;;23.50
76394;BMP180;65216;51.090;-115.352;2023-08-01T02:23:40;87014.60;;;23.50
76394;BMP180;65216;51.090;-115.352;2023-08-01T02:26:07;87023.40;;;23.50
76394;BMP180;65216;51.090;-115.352;2023-08-01T02:28:35;87030.00;;;23.48
76394;BMP180;65216;51.090;-115.352;2023-08-01T02:31:02;87033.00;;;23.40
76394;BMP180;65216;51.090;-115.352;2023-08-01T02:33:30;87035.20;;;23.40
76394;BMP180;65216;51.090;-115.352;2023-08-01T02:35:59;87030.80;;;23.40
76394;BMP180;65216;51.090;-115.352;2023-08-01T02:38:26;87030.00;;;23.40
76394;BMP180;65216;51.090;-115.352;2023-08-01T02:40:53;87031.20;;;23.38
76394;BMP180;65216;51.090;-115.352;2023-08-01T02:43:20;87041.60;;;23.30
76394;BMP180;65216;51.090;-115.352;2023-08-01T02:45:50;87042.20;;;23.30
76394;BMP180;65216;51.090;-115.352;2023-08-01T02:48:17;87039.60;;;23.20
76394;BMP180;65216;51.090;-115.352;2023-08-01T02:51:13;87036.00;;;23.20
76394;BMP180;65216;51.090;-115.352;2023-08-01T02:53:42;87044.60;;;23.20
76394;BMP180;65216;51.090;-115.352;2023-08-01T02:56:10;87046.00;;;23.20
76394;BMP180;65216;51.090;-115.352;2023-08-01T02:58:38;87033.40;;;23.20
76394;BMP180;65216;51.090;-115.352;2023-08-01T03:01:14;87050.60;;;23.14
76394;BMP180;65216;51.090;-115.352;2023-08-01T03:03:45;87042.40;;;23.10
76394;BMP180;65216;51.090;-115.352;2023-08-01T03:06:13;87057.00;;;23.10
76394;BMP180;65216;51.090;-115.352;2023-08-01T03:08:40;87051.60;;;23.10
76394;BMP180;65216;51.090;-115.352;2023-08-01T03:11:07;87048.40;;;23.10
76394;BMP180;65216;51.090;-115.352;2023-08-01T03:13:34;87067.60;;;23.06
76394;BMP180;65216;51.090;-115.352;2023-08-01T03:16:01;87066.40;;;23.00
76394;BMP180;65216;51.090;-115.352;2023-08-01T03:18:30;87066.00;;;23.00
76394;BMP180;65216;51.090;-115.352;2023-08-01T03:20:57;87072.40;;;23.00
76394;BMP180;65216;51.090;-115.352;2023-08-01T03:23:24;87072.80;;;23.00
76394;BMP180;65216;51.090;-115.352;2023-08-01T03:25:51;87069.20;;;23.00
76394;BMP180;65216;51.090;-115.352;2023-08-01T03:28:18;87082.20;;;22.90
76394;BMP180;65216;51.090;-115.352;2023-08-01T03:30:45;87079.20;;;22.90
76394;BMP180;65216;51.090;-115.352;2023-08-01T03:33:16;87080.40;;;22.90
76394;BMP180;65216;51.090;-115.352;2023-08-01T03:35:43;87085.80;;;22.90
76394;BMP180;65216;51.090;-115.352;2023-08-01T03:38:10;87092.00;;;22.84
76394;BMP180;65216;51.090;-115.352;2023-08-01T03:40:37;87094.80;;;22.80
76394;BMP180;65216;51.090;-115.352;2023-08-01T03:43:04;87088.60;;;22.80
76394;BMP180;65216;51.090;-115.352;2023-08-01T03:45:33;87102.40;;;22.80
76394;BMP180;65216;51.090;-115.352;2023-08-01T03:48:00;87094.20;;;22.80
76394;BMP180;65216;51.090;-115.352;2023-08-01T03:50:27;87106.60;;;22.80
76394;BMP180;65216;51.090;-115.352;2023-08-01T03:52:54;87106.80;;;22.70
76394;BMP180;65216;51.090;-115.352;2023-08-01T03:55:24;87097.60;;;22.70
76394;BMP180;65216;51.090;-115.352;2023-08-01T03:57:50;87112.20;;;22.70
76394;BMP180;65216;51.090;-115.352;2023-08-01T04:00:21;87119.60;;;22.70
76394;BMP180;65216;51.090;-115.352;2023-08-01T04:02:48;87123.60;;;22.70
76394;BMP180;65216;51.090;-115.352;2023-08-01T04:05:15;87126.80;;;22.70
76394;BMP180;65216;51.090;-115.352;2023-08-01T04:07:42;87125.00;;;22.60
76394;BMP180;65216;51.090;-115.352;2023-08-01T04:10:10;87130.00;;;22.60
76394;BMP180;65216;51.090;-115.352;2023-08-01T04:12:37;87130.60;;;22.60
76394;BMP180;65216;51.090;-115.352;2023-08-01T04:15:09;87128.60;;;22.60
76394;BMP180;65216;51.090;-115.352;2023-08-01T04:17:36;87131.00;;;22.52
76394;BMP180;65216;51.090;-115.352;2023-08-01T04:20:04;87141.80;;;22.50
76394;BMP180;65216;51.090;-115.352;2023-08-01T04:22:34;87145.60;;;22.50
76394;BMP180;65216;51.090;-115.352;2023-08-01T04:25:02;87152.40;;;22.50
76394;BMP180;65216;51.090;-115.352;2023-08-01T04:27:29;87163.20;;;22.42
76394;BMP180;65216;51.090;-115.352;2023-08-01T04:29:59;87167.00;;;22.40
76394;BMP180;65216;51.090;-115.352;2023-08-01T04:32:26;87169.20;;;22.40
76394;BMP180;65216;51.090;-115.352;2023-08-01T04:34:52;87170.80;;;22.40
76394;BMP180;65216;51.090;-115.352;2023-08-01T04:37:19;87176.60;;;22.40
76394;BMP180;65216;51.090;-115.352;2023-08-01T04:39:49;87171.00;;;22.40
76394;BMP180;65216;51.090;-115.352;2023-08-01T04:42:16;87171.20;;;22.40
76394;BMP180;65216;51.090;-115.352;2023-08-01T04:44:43;87177.20;;;22.40
76394;BMP180;65216;51.090;-115.352;2023-08-01T04:47:10;87176.40;;;22.40
76394;BMP180;65216;51.090;-115.352;2023-08-01T04:49:40;87178.60;;;22.40
76394;BMP180;65216;51.090;-115.352;2023-08-01T04:52:07;87179.40;;;22.38
76394;BMP180;65216;51.090;-115.352;2023-08-01T04:54:34;87182.80;;;22.38
76394;BMP180;65216;51.090;-115.352;2023-08-01T04:57:02;87187.60;;;22.34
76394;BMP180;65216;51.090;-115.352;2023-08-01T04:59:29;87187.00;;;22.30
76394;BMP180;65216;51.090;-115.352;2023-08-01T05:01:56;87186.80;;;22.30
76394;BMP180;65216;51.090;-115.352;2023-08-01T05:04:25;87187.00;;;22.30
76394;BMP180;65216;51.090;-115.352;2023-08-01T05:06:52;87189.60;;;22.30
76394;BMP180;65216;51.090;-115.352;2023-08-01T05:09:19;87193.00;;;22.30
76394;BMP180;65216;51.090;-115.352;2023-08-01T05:11:46;87190.00;;;22.30
76394;BMP180;65216;51.090;-115.352;2023-08-01T05:14:15;87189.20;;;22.30
76394;BMP180;65216;51.090;-115.352;2023-08-01T05:16:42;87192.40;;;22.30
76394;BMP180;65216;51.090;-115.352;2023-08-01T05:19:09;87191.60;;;22.30
76394;BMP180;65216;51.090;-115.352;2023-08-01T05:21:39;87194.40;;;22.28
76394;BMP180;65216;51.090;-115.352;2023-08-01T05:24:06;87200.60;;;22.22
76394;BMP180;65216;51.090;-115.352;2023-08-01T05:26:33;87200.60;;;22.20
76394;BMP180;65216;51.090;-115.352;2023-08-01T05:29:00;87196.20;;;22.20
76394;BMP180;65216;51.090;-115.352;2023-08-01T05:31:27;87194.00;;;22.20
76394;BMP180;65216;51.090;-115.352;2023-08-01T05:33:54;87199.40;;;22.20
76394;BMP180;65216;51.090;-115.352;2023-08-01T05:36:21;87203.80;;;22.20
76394;BMP180;65216;51.090;-115.352;2023-08-01T05:38:47;87202.80;;;22.20
76394;BMP180;65216;51.090;-115.352;2023-08-01T05:41:14;87211.80;;;22.20
76394;BMP180;65216;51.090;-115.352;2023-08-01T05:43:41;87203.80;;;22.18
76394;BMP180;65216;51.090;-115.352;2023-08-01T05:46:11;87198.00;;;22.18
76394;BMP180;65216;51.090;-115.352;2023-08-01T05:48:37;87198.20;;;22.14
76394;BMP180;65216;51.090;-115.352;2023-08-01T05:51:07;87204.60;;;22.10
76394;BMP180;65216;51.090;-115.352;2023-08-01T05:53:34;87212.00;;;22.10
76394;BMP180;65216;51.090;-115.352;2023-08-01T05:56:01;87219.60;;;22.10
76394;BMP180;65216;51.090;-115.352;2023-08-01T05:58:28;87219.40;;;22.10
76394;BMP180;65216;51.090;-115.352;2023-08-01T06:00:55;87220.40;;;22.10
76394;BMP180;65216;51.090;-115.352;2023-08-01T06:03:22;87213.60;;;22.10
76394;BMP180;65216;51.090;-115.352;2023-08-01T06:05:49;87214.60;;;22.10
76394;BMP180;65216;51.090;-115.352;2023-08-01T06:08:16;87216.80;;;22.10
76394;BMP180;65216;51.090;-115.352;2023-08-01T06:10:43;87223.00;;;22.10
76394;BMP180;65216;51.090;-115.352;2023-08-01T06:13:19;87228.60;;;22.10
76394;BMP180;65216;51.090;-115.352;2023-08-01T06:15:46;87227.80;;;22.10
76394;BMP180;65216;51.090;-115.352;2023-08-01T06:18:13;87230.60;;;22.10
76394;BMP180;65216;51.090;-115.352;2023-08-01T06:20:40;87230.00;;;22.08
76394;BMP180;65216;51.090;-115.352;2023-08-01T06:23:07;87236.80;;;22.00
76394;BMP180;65216;51.090;-115.352;2023-08-01T06:25:34;87243.00;;;22.00
76394;BMP180;65216;51.090;-115.352;2023-08-01T06:28:01;87247.60;;;22.00
76394;BMP180;65216;51.090;-115.352;2023-08-01T06:30:28;87244.40;;;22.00
76394;BMP180;65216;51.090;-115.352;2023-08-01T06:32:58;87248.20;;;22.00
76394;BMP180;65216;51.090;-115.352;2023-08-01T06:35:24;87253.40;;;22.00
76394;BMP180;65216;51.090;-115.352;2023-08-01T06:37:51;87254.80;;;22.00
76394;BMP180;65216;51.090;-115.352;2023-08-01T06:40:21;87249.80;;;22.00
76394;BMP180;65216;51.090;-115.352;2023-08-01T06:42:50;87254.20;;;21.90
76394;BMP180;65216;51.090;-115.352;2023-08-01T06:45:19;87258.80;;;21.90
76394;BMP180;65216;51.090;-115.352;2023-08-01T06:47:49;87258.20;;;21.90
76394;BMP180;65216;51.090;-115.352;2023-08-01T06:50:16;87263.40;;;21.90
76394;BMP180;65216;51.090;-115.352;2023-08-01T06:52:43;87263.60;;;21.90
76394;BMP180;65216;51.090;-115.352;2023-08-01T06:55:10;87263.80;;;21.90
76394;BMP180;65216;51.090;-115.352;2023-08-01T06:57:39;87262.80;;;21.90
76394;BMP180;65216;51.090;-115.352;2023-08-01T07:00:12;87267.20;;;21.90
76394;BMP180;65216;51.090;-115.352;2023-08-01T07:02:39;87266.20;;;21.86
76394;BMP180;65216;51.090;-115.352;2023-08-01T07:05:06;87265.80;;;21.84
76394;BMP180;65216;51.090;-115.352;2023-08-01T07:07:33;87265.60;;;21.80
76394;BMP180;65216;51.090;-115.352;2023-08-01T07:10:00;87271.60;;;21.80
76394;BMP180;65216;51.090;-115.352;2023-08-01T07:12:27;87274.00;;;21.80
76394;BMP180;65216;51.090;-115.352;2023-08-01T07:14:54;87274.00;;;21.80
76394;BMP180;65216;51.090;-115.352;2023-08-01T07:17:20;87279.80;;;21.80
76394;BMP180;65216;51.090;-115.352;2023-08-01T07:19:50;87281.00;;;21.80
76394;BMP180;65216;51.090;-115.352;2023-08-01T07:22:17;87284.40;;;21.80
76394;BMP180;65216;51.090;-115.352;2023-08-01T07:24:44;87282.00;;;21.80
76394;BMP180;65216;51.090;-115.352;2023-08-01T07:27:14;87287.60;;;21.80
76394;BMP180;65216;51.090;-115.352;2023-08-01T07:29:40;87286.00;;;21.80
76394;BMP180;65216;51.090;-115.352;2023-08-01T07:32:10;87287.20;;;21.80
76394;BMP180;65216;51.090;-115.352;2023-08-01T07:34:37;87277.60;;;21.80
76394;BMP180;65216;51.090;-115.352;2023-08-01T07:37:04;87285.00;;;21.80
76394;BMP180;65216;51.090;-115.352;2023-08-01T07:39:31;87288.60;;;21.78
76394;BMP180;65216;51.090;-115.352;2023-08-01T07:42:01;87288.20;;;21.80
76394;BMP180;65216;51.090;-115.352;2023-08-01T07:44:28;87294.20;;;21.76
76394;BMP180;65216;51.090;-115.352;2023-08-01T07:46:55;87296.60;;;21.74
76394;BMP180;65216;51.090;-115.352;2023-08-01T07:49:23;87297.00;;;21.76
76394;BMP180;65216;51.090;-115.352;2023-08-01T07:51:50;87296.00;;;21.76
76394;BMP180;65216;51.090;-115.352;2023-08-01T07:54:17;87294.60;;;21.76
76394;BMP180;65216;51.090;-115.352;2023-08-01T07:56:44;87296.20;;;21.76
76394;BMP180;65216;51.090;-115.352;2023-08-01T07:59:15;87300.20;;;21.70
76394;BMP180;65216;51.090;-115.352;2023-08-01T08:04:29;87301.00;;;21.70
76394;BMP180;65216;51.090;-115.352;2023-08-01T08:06:56;87303.60;;;21.70
76394;BMP180;65216;51.090;-115.352;2023-08-01T08:09:26;87300.60;;;21.70
76394;BMP180;65216;51.090;-115.352;2023-08-01T08:11:53;87300.60;;;21.70
76394;BMP180;65216;51.090;-115.352;2023-08-01T08:14:20;87307.60;;;21.70
76394;BMP180;65216;51.090;-115.352;2023-08-01T08:16:52;87304.60;;;21.72
76394;BMP180;65216;51.090;-115.352;2023-08-01T08:19:19;87307.20;;;21.74
76394;BMP180;65216;51.090;-115.352;2023-08-01T08:21:46;87304.00;;;21.70
76394;BMP180;65216;51.090;-115.352;2023-08-01T08:24:13;87306.60;;;21.70
76394;BMP180;65216;51.090;-115.352;2023-08-01T08:26:40;87312.00;;;21.70
76394;BMP180;65216;51.090;-115.352;2023-08-01T08:29:07;87310.20;;;21.70
76394;BMP180;65216;51.090;-115.352;2023-08-01T08:31:34;87313.40;;;21.70
76394;BMP180;65216;51.090;-115.352;2023-08-01T08:34:02;87314.20;;;21.70
76394;BMP180;65216;51.090;-115.352;2023-08-01T08:36:29;87316.00;;;21.70
76394;BMP180;65216;51.090;-115.352;2023-08-01T08:38:55;87319.00;;;21.70
76394;BMP180;65216;51.090;-115.352;2023-08-01T08:41:26;87318.80;;;21.70
76394;BMP180;65216;51.090;-115.352;2023-08-01T08:43:57;87317.80;;;21.70
76394;BMP180;65216;51.090;-115.352;2023-08-01T08:46:30;87325.20;;;21.70
76394;BMP180;65216;51.090;-115.352;2023-08-01T08:48:58;87323.40;;;21.70
76394;BMP180;65216;51.090;-115.352;2023-08-01T08:51:28;87319.00;;;21.70
76394;BMP180;65216;51.090;-115.352;2023-08-01T08:53:57;87321.00;;;21.70
76394;BMP180;65216;51.090;-115.352;2023-08-01T08:56:24;87318.60;;;21.70
76394;BMP180;65216;51.090;-115.352;2023-08-01T08:58:52;87314.40;;;21.70
76394;BMP180;65216;51.090;-115.352;2023-08-01T09:01:20;87323.60;;;21.70
76394;BMP180;65216;51.090;-115.352;2023-08-01T09:03:47;87324.80;;;21.70
76394;BMP180;65216;51.090;-115.352;2023-08-01T09:06:30;87324.60;;;21.70
76394;BMP180;65216;51.090;-115.352;2023-08-01T09:09:11;87325.80;;;21.68
76394;BMP180;65216;51.090;-115.352;2023-08-01T09:11:50;87332.40;;;21.64
76394;BMP180;65216;51.090;-115.352;2023-08-01T09:14:19;87334.40;;;21.64
76394;BMP180;65216;51.090;-115.352;2023-08-01T09:16:47;87337.80;;;21.64
76394;BMP180;65216;51.090;-115.352;2023-08-01T09:19:19;87340.60;;;21.62
76394;BMP180;65216;51.090;-115.352;2023-08-01T09:21:47;87343.80;;;21.60
76394;BMP180;65216;51.090;-115.352;2023-08-01T09:24:17;87343.20;;;21.60
76394;BMP180;65216;51.090;-115.352;2023-08-01T09:26:47;87350.20;;;21.60
76394;BMP180;65216;51.090;-115.352;2023-08-01T09:29:17;87350.20;;;21.60
76394;BMP180;65216;51.090;-115.352;2023-08-01T09:31:44;87352.00;;;21.60
76394;BMP180;65216;51.090;-115.352;2023-08-01T09:34:27;87353.60;;;21.60
76394;BMP180;65216;51.090;-115.352;2023-08-01T09:37:04;87356.40;;;21.60
76394;BMP180;65216;51.090;-115.352;2023-08-01T09:39:31;87361.20;;;21.60
76394;BMP180;65216;51.090;-115.352;2023-08-01T09:42:02;87365.80;;;21.50
76394;BMP180;65216;51.090;-115.352;2023-08-01T09:44:30;87366.80;;;21.50
76394;BMP180;65216;51.090;-115.352;2023-08-01T09:47:04;87364.40;;;21.50
76394;BMP180;65216;51.090;-115.352;2023-08-01T09:49:35;87366.20;;;21.50
76394;BMP180;65216;51.090;-115.352;2023-08-01T09:52:03;87362.00;;;21.50
76394;BMP180;65216;51.090;-115.352;2023-08-01T09:54:30;87367.00;;;21.50
76394;BMP180;65216;51.090;-115.352;2023-08-01T09:56:58;87365.80;;;21.48
76394;BMP180;65216;51.090;-115.352;2023-08-01T09:59:26;87363.80;;;21.40
76394;BMP180;65216;51.090;-115.352;2023-08-01T10:01:55;87365.40;;;21.40
76394;BMP180;65216;51.090;-115.352;2023-08-01T10:04:30;87361.40;;;21.40
76394;BMP180;65216;51.090;-115.352;2023-08-01T10:07:03;87360.40;;;21.40
76394;BMP180;65216;51.090;-115.352;2023-08-01T10:09:34;87365.60;;;21.40
76394;BMP180;65216;51.090;-115.352;2023-08-01T10:12:05;87364.60;;;21.40
76394;BMP180;65216;51.090;-115.352;2023-08-01T10:14:36;87363.80;;;21.40
76394;BMP180;65216;51.090;-115.352;2023-08-01T10:17:04;87366.00;;;21.40
76394;BMP180;65216;51.090;-115.352;2023-08-01T10:19:33;87367.40;;;21.36
76394;BMP180;65216;51.090;-115.352;2023-08-01T10:22:02;87372.00;;;21.30
76394;BMP180;65216;51.090;-115.352;2023-08-01T10:24:33;87373.40;;;21.30
76394;BMP180;65216;51.090;-115.352;2023-08-01T10:27:20;87373.40;;;21.30
76394;BMP180;65216;51.090;-115.352;2023-08-01T10:30:01;87375.20;;;21.30
76394;BMP180;65216;51.090;-115.352;2023-08-01T10:32:34;87378.40;;;21.30
76394;BMP180;65216;51.090;-115.352;2023-08-01T10:35:03;87381.80;;;21.30
76394;BMP180;65216;51.090;-115.352;2023-08-01T10:37:44;87379.80;;;21.30
76394;BMP180;65216;51.090;-115.352;2023-08-01T10:40:13;87383.20;;;21.30
76394;BMP180;65216;51.090;-115.352;2023-08-01T10:42:45;87384.40;;;21.28
76394;BMP180;65216;51.090;-115.352;2023-08-01T10:45:23;87389.80;;;21.26
76394;BMP180;65216;51.090;-115.352;2023-08-01T10:47:51;87391.40;;;21.20
76394;BMP180;65216;51.090;-115.352;2023-08-01T10:50:18;87391.20;;;21.20
76394;BMP180;65216;51.090;-115.352;2023-08-01T10:52:46;87391.80;;;21.20
76394;BMP180;65216;51.090;-115.352;2023-08-01T10:55:16;87390.80;;;21.20
76394;BMP180;65216;51.090;-115.352;2023-08-01T10:57:50;87392.80;;;21.20
76394;BMP180;65216;51.090;-115.352;2023-08-01T11:00:17;87398.20;;;21.20
76394;BMP180;65216;51.090;-115.352;2023-08-01T11:02:52;87393.60;;;21.20
76394;BMP180;65216;51.090;-115.352;2023-08-01T11:05:22;87397.40;;;21.20
76394;BMP180;65216;51.090;-115.352;2023-08-01T11:08:00;87396.40;;;21.20
76394;BMP180;65216;51.090;-115.352;2023-08-01T11:10:29;87399.00;;;21.12
76394;BMP180;65216;51.090;-115.352;2023-08-01T11:13:01;87402.40;;;21.12
76394;BMP180;65216;51.090;-115.352;2023-08-01T11:15:28;87395.60;;;21.12
76394;BMP180;65216;51.090;-115.352;2023-08-01T11:17:57;87399.80;;;21.10
76394;BMP180;65216;51.090;-115.352;2023-08-01T11:20:29;87401.00;;;21.10
76394;BMP180;65216;51.090;-115.352;2023-08-01T11:23:03;87399.40;;;21.10
76394;BMP180;65216;51.090;-115.352;2023-08-01T11:25:45;87400.60;;;21.10
76394;BMP180;65216;51.090;-115.352;2023-08-01T11:28:17;87399.80;;;21.10
76394;BMP180;65216;51.090;-115.352;2023-08-01T11:30:44;87407.20;;;21.10
76394;BMP180;65216;51.090;-115.352;2023-08-01T11:33:20;87408.60;;;21.10
76394;BMP180;65216;51.090;-115.352;2023-08-01T11:38:22;87409.20;;;21.10
76394;BMP180;65216;51.090;-115.352;2023-08-01T11:40:51;87407.40;;;21.10
76394;BMP180;65216;51.090;-115.352;2023-08-01T11:43:19;87412.40;;;21.10
76394;BMP180;65216;51.090;-115.352;2023-08-01T11:45:54;87415.20;;;21.10
76394;BMP180;65216;51.090;-115.352;2023-08-01T11:48:26;87419.20;;;21.10
76394;BMP180;65216;51.090;-115.352;2023-08-01T11:50:59;87418.20;;;21.10
76394;BMP180;65216;51.090;-115.352;2023-08-01T11:53:26;87422.20;;;21.10
76394;BMP180;65216;51.090;-115.352;2023-08-01T11:55:54;87421.60;;;21.10
76394;BMP180;65216;51.090;-115.352;2023-08-01T11:58:42;87420.20;;;21.10
76394;BMP180;65216;51.090;-115.352;2023-08-01T12:01:14;87421.20;;;21.10
76394;BMP180;65216;51.090;-115.352;2023-08-01T12:03:54;87423.20;;;21.10
76394;BMP180;65216;51.090;-115.352;2023-08-01T12:06:23;87421.00;;;21.10
76394;BMP180;65216;51.090;-115.352;2023-08-01T12:08:52;87423.20;;;21.10
76394;BMP180;65216;51.090;-115.352;2023-08-01T12:11:24;87427.40;;;21.10
76394;BMP180;65216;51.090;-115.352;2023-08-01T12:14:04;87425.40;;;21.10
76394;BMP180;65216;51.090;-115.352;2023-08-01T12:16:32;87427.40;;;21.10
76394;BMP180;65216;51.090;-115.352;2023-08-01T12:18:59;87429.40;;;21.10
76394;BMP180;65216;51.090;-115.352;2023-08-01T12:21:26;87433.00;;;21.10
76394;BMP180;65216;51.090;-115.352;2023-08-01T12:23:52;87433.20;;;21.10
76394;BMP180;65216;51.090;-115.352;2023-08-01T12:26:22;87433.00;;;21.10
76394;BMP180;65216;51.090;-115.352;2023-08-01T12:28:50;87435.60;;;21.08
76394;BMP180;65216;51.090;-115.352;2023-08-01T12:31:22;87432.80;;;21.10
76394;BMP180;65216;51.090;-115.352;2023-08-01T12:33:49;87445.80;;;21.10
76394;BMP180;65216;51.090;-115.352;2023-08-01T12:36:16;87440.20;;;21.10
76394;BMP180;65216;51.090;-115.352;2023-08-01T12:38:43;87435.20;;;21.10
76394;BMP180;65216;51.090;-115.352;2023-08-01T12:41:10;87435.20;;;21.06
76394;BMP180;65216;51.090;-115.352;2023-08-01T12:43:37;87438.00;;;21.08
76394;BMP180;65216;51.090;-115.352;2023-08-01T12:46:04;87436.00;;;21.04
76394;BMP180;65216;51.090;-115.352;2023-08-01T12:48:31;87437.20;;;21.00
76394;BMP180;65216;51.090;-115.352;2023-08-01T12:50:58;87442.20;;;21.00
76394;BMP180;65216;51.090;-115.352;2023-08-01T12:53:26;87434.80;;;21.00
76394;BMP180;65216;51.090;-115.352;2023-08-01T12:55:53;87445.20;;;21.02
76394;BMP180;65216;51.090;-115.352;2023-08-01T12:58:20;87445.40;;;21.00
76394;BMP180;65216;51.090;-115.352;2023-08-01T13:00:47;87445.40;;;21.00
76394;BMP180;65216;51.090;-115.352;2023-08-01T13:03:14;87446.00;;;21.00
76394;BMP180;65216;51.090;-115.352;2023-08-01T13:05:42;87438.40;;;21.02
76394;BMP180;65216;51.090;-115.352;2023-08-01T13:08:10;87438.20;;;21.00
76394;BMP180;65216;51.090;-115.352;2023-08-01T13:10:38;87444.40;;;21.00
76394;BMP180;65216;51.090;-115.352;2023-08-01T13:13:06;87442.20;;;21.02
76394;BMP180;65216;51.090;-115.352;2023-08-01T13:15:33;87433.60;;;21.00
76394;BMP180;65216;51.090;-115.352;2023-08-01T13:18:00;87438.20;;;21.00
76394;BMP180;65216;51.090;-115.352;2023-08-01T13:20:27;87444.80;;;21.00
76394;BMP180;65216;51.090;-115.352;2023-08-01T13:22:54;87445.00;;;21.00
76394;BMP180;65216;51.090;-115.352;2023-08-01T13:25:21;87448.80;;;21.00
76394;BMP180;65216;51.090;-115.352;2023-08-01T13:27:48;87446.40;;;21.00
76394;BMP180;65216;51.090;-115.352;2023-08-01T13:30:15;87444.80;;;21.00
76394;BMP180;65216;51.090;-115.352;2023-08-01T13:32:45;87448.00;;;21.00
76394;BMP180;65216;51.090;-115.352;2023-08-01T13:35:13;87451.40;;;21.00
76394;BMP180;65216;51.090;-115.352;2023-08-01T13:37:40;87458.20;;;21.00
76394;BMP180;65216;51.090;-115.352;2023-08-01T13:40:08;87455.60;;;21.00
76394;BMP180;65216;51.090;-115.352;2023-08-01T13:42:38;87458.40;;;21.00
76394;BMP180;65216;51.090;-115.352;2023-08-01T13:45:06;87453.60;;;21.00